Latest Weather Observations for Swan Hill

IDV60801

Issued at 9:05 pm EST Friday 25 July 2014 (issued every 30 minutes, with the page automatically refreshed every 10 minutes)

About weather observations | Map of weather stations | Latest weather observations for VIC | Other Formats
Station Details ID: 077094 Name: SWAN HILL AERODROME Lat: -35.38 Lon: 143.54 Height: 71.0 m
Data from the previous 72 hours. | See also: Recent months at Swan Hill
Date/Time
EST
Temp
°C
App
Temp
°C
Dew
Point
Rel
Hum
%
Delta-T
°C
Wind Press
QNH
hPa
Press
MSL
hPa
Rain
since 9 am
mm
Dir
 
Spd
km/h
Gust
km/h
Spd
kts
Gust
kts
25/09:00pm 11.1 8.6 9.7 91 0.7 NNW 13 17 7 9 1021.7 1021.8 1.2
25/08:30pm 11.0 8.9 9.8 92 0.6 W 11 11 6 6 1021.4 - 1.2
25/08:00pm 11.4 9.3 9.8 90 0.8 W 11 15 6 8 1021.0 - 1.2
25/07:30pm 11.5 9.5 10.3 92 0.6 W 11 15 6 8 1020.6 - 1.2
25/07:00pm 11.2 9.5 9.8 91 0.7 NNW 9 13 5 7 1020.1 - 1.2
25/06:30pm 11.8 9.8 10.0 89 0.9 WNW 11 13 6 7 1019.8 - 0.2
25/06:00pm 11.7 9.6 9.7 87 1.0 WNW 11 13 6 7 1019.4 1019.5 0.0
25/05:30pm 12.9 10.4 9.8 81 1.6 WNW 13 15 7 8 1018.9 - 0.0
25/05:00pm 14.5 12.5 10.1 75 2.3 WNW 11 15 6 8 1018.4 - 0.0
25/04:30pm 15.0 11.7 9.4 69 2.9 WNW 17 20 9 11 1018.3 - 0.0
25/04:00pm 16.3 13.4 9.6 64 3.5 W 15 22 8 12 1018.1 - 0.0
25/03:30pm 16.4 12.0 9.0 61 3.8 WNW 22 30 12 16 1017.9 - 0.0
25/03:00pm 16.4 11.2 9.0 61 3.8 WNW 26 33 14 18 1017.8 1018.0 0.0
25/02:30pm 15.9 12.3 10.0 68 3.1 WNW 19 24 10 13 1017.7 - 0.0
25/02:00pm 15.9 11.6 9.3 65 3.4 NW 22 28 12 15 1017.8 - 0.0
25/01:30pm 15.6 10.9 9.4 66 3.2 WNW 24 33 13 18 1018.0 - 0.0
25/01:00pm 14.9 10.9 10.5 75 2.3 WNW 22 26 12 14 1018.2 - 0.0
25/12:30pm 15.3 11.2 10.1 71 2.7 WNW 22 28 12 15 1018.5 - 0.0
25/12:00pm 14.9 9.9 9.7 71 2.7 WNW 26 32 14 17 1018.7 1018.9 0.0
25/11:30am 14.6 10.0 9.6 72 2.6 NW 24 28 13 15 1019.0 - 0.0
25/11:00am 14.1 9.9 9.6 74 2.3 WNW 22 30 12 16 1019.0 - 0.0
25/10:30am 12.8 8.1 9.2 79 1.8 NW 24 32 13 17 1019.0 - 0.0
25/10:00am 12.3 7.9 9.1 81 1.6 NW 22 32 12 17 1018.9 - 0.0
25/09:30am 11.7 7.6 8.7 82 1.5 NNW 20 26 11 14 1018.4 - 0.0
25/09:00am 10.1 6.7 7.6 84 1.2 NNW 15 20 8 11 1018.2 1018.4 1.2
25/08:30am 8.8 5.6 6.9 88 0.9 N 13 15 7 8 1017.7 - 1.2
25/08:00am 7.8 4.1 6.3 90 0.7 N 15 17 8 9 1017.3 - 1.2
25/07:30am 7.4 3.7 6.1 91 0.6 N 15 17 8 9 1017.1 - 1.2
25/07:00am 7.8 4.1 6.3 90 0.7 N 15 20 8 11 1016.8 - 1.2
25/06:30am 7.9 4.6 6.6 91 0.6 N 13 17 7 9 1016.5 - 1.2
25/06:00am 8.2 5.0 6.7 90 0.7 N 13 17 7 9 1016.0 1016.2 1.2
25/05:30am 8.3 5.1 6.8 90 0.7 N 13 17 7 9 1015.6 - 1.2
25/05:00am 8.5 5.0 7.0 90 0.7 N 15 17 8 9 1015.4 - 1.2
25/04:30am 7.4 3.7 6.3 93 0.5 N 15 17 8 9 1015.3 - 1.2
25/04:00am 7.6 3.9 6.5 93 0.5 N 15 17 8 9 1015.0 - 1.2
25/03:30am 7.1 4.1 6.0 93 0.5 N 11 15 6 8 1014.9 - 1.2
25/03:00am 7.6 4.7 6.5 93 0.5 N 11 13 6 7 1014.9 1015.1 1.2
25/02:30am 7.8 4.9 6.7 93 0.5 N 11 13 6 7 1014.8 - 1.2
25/02:00am 8.0 4.8 6.9 93 0.5 N 13 13 7 7 1014.6 - 1.2
25/01:30am 8.6 5.1 7.3 91 0.6 NNW 15 17 8 9 1014.3 - 1.2
25/01:00am 9.7 6.0 8.0 89 0.8 NNW 17 19 9 10 1014.2 - 1.2
25/12:30am 10.5 6.9 8.5 87 1.0 N 17 22 9 12 1014.2 - 1.2
25/12:00am 10.3 7.3 9.1 92 0.6 N 15 19 8 10 1014.2 1014.3 1.2
 
Date/Time
EST
Temp
°C
App
Temp
°C
Dew
Point
Rel
Hum
%
Delta-T
°C
Wind Press
QNH
hPa
Press
MSL
hPa
Rain
since 9 am
mm
Dir
 
Spd
km/h
Gust
km/h
Spd
kts
Gust
kts
24/11:30pm 8.9 6.4 8.1 95 0.4 N 11 13 6 7 1014.0 - 1.2
24/11:00pm 10.3 7.7 9.3 93 0.5 N 13 17 7 9 1014.0 - 1.2
24/10:30pm 11.3 8.9 10.1 92 0.6 NNW 13 17 7 9 1014.2 - 1.2
24/10:00pm 11.6 6.3 9.8 89 0.9 NW 28 41 15 22 1014.2 - 0.8
24/09:30pm 12.8 8.6 7.5 70 2.6 NNW 19 24 10 13 1013.7 - 0.0
24/09:00pm 12.5 9.5 7.6 72 2.4 N 13 15 7 8 1013.5 1013.6 0.0
24/08:30pm 12.7 10.0 7.4 70 2.6 N 11 13 6 7 1013.4 - 0.0
24/08:00pm 11.2 8.2 7.5 78 1.8 N 13 15 7 8 1013.3 - 0.0
24/07:30pm 13.6 10.4 7.0 64 3.2 N 13 19 7 10 1012.7 - 0.0
24/07:00pm 12.5 10.0 8.3 75 2.1 NNW 11 13 6 7 1012.4 - 0.0
24/06:30pm 12.9 10.4 8.1 72 2.4 NNW 11 13 6 7 1012.1 - 0.0
24/06:00pm 13.3 10.7 7.8 69 2.7 NW 11 13 6 7 1011.6 1011.7 0.0
24/05:30pm 14.2 11.0 6.8 61 3.6 NW 13 15 7 8 1011.3 - 0.0
24/05:00pm 14.3 10.6 6.2 58 3.9 NW 15 20 8 11 1010.9 - 0.0
24/04:30pm 16.1 11.5 5.8 50 5.0 NNW 19 24 10 13 1010.5 - 0.0
24/04:00pm 17.6 12.6 4.4 41 6.3 N 20 32 11 17 1010.0 - 0.0
24/03:30pm 18.0 11.6 3.2 37 6.9 NNW 26 35 14 19 1009.7 - 0.0
24/03:00pm 18.3 11.9 3.4 37 7.0 N 26 37 14 20 1009.7 1009.8 0.0
24/02:30pm 18.3 12.2 4.8 41 6.5 N 26 37 14 20 1009.7 - 0.0
24/02:00pm 17.7 11.2 4.5 41 6.3 N 28 35 15 19 1010.0 - 0.0
24/01:30pm 17.6 11.6 5.5 45 5.9 NNE 26 39 14 21 1010.1 - 0.0
24/01:00pm 16.9 10.3 6.1 49 5.3 NNE 30 43 16 23 1010.7 - 0.0
24/12:30pm 15.9 10.4 7.7 58 4.1 NNE 26 39 14 21 1011.4 - 0.0
24/12:00pm 15.4 10.5 8.3 62 3.6 NE 24 30 13 16 1012.0 1012.1 0.0
24/11:30am 13.6 8.1 7.7 67 2.9 NE 26 35 14 19 1012.3 - 0.0
24/11:00am 12.3 8.1 8.3 76 2.0 ENE 20 28 11 15 1012.7 - 0.0
24/10:30am 11.3 7.6 8.0 80 1.6 ENE 17 24 9 13 1013.2 - 0.0
24/10:00am 10.6 6.6 8.1 84 1.2 ENE 19 26 10 14 1013.3 - 0.0
24/09:30am 10.2 6.5 7.9 86 1.1 NE 17 24 9 13 1013.7 - 0.0
24/09:00am 9.7 6.0 7.8 88 0.9 NE 17 20 9 11 1013.7 1013.8 1.4
24/08:30am 9.5 5.1 7.6 88 0.9 ENE 20 28 11 15 1013.6 - 1.4
24/08:00am 9.1 5.3 7.6 90 0.7 ENE 17 24 9 13 1013.7 - 1.4
24/07:30am 9.0 4.8 7.5 90 0.7 ENE 19 26 10 14 1013.6 - 1.4
24/07:00am 8.8 6.2 7.8 93 0.5 E 11 19 6 10 1013.5 - 1.4
24/06:30am 9.0 5.7 8.0 93 0.5 ENE 15 20 8 11 1013.7 - 1.4
24/06:00am 8.9 6.0 8.1 95 0.4 NE 13 19 7 10 1014.3 1014.4 1.2
24/05:30am 9.0 6.5 8.0 93 0.5 NNE 11 20 6 11 1014.0 - 1.0
24/05:00am 9.5 5.4 7.8 89 0.8 N 19 24 10 13 1014.6 - 0.8
24/04:30am 8.9 6.3 7.6 91 0.6 ENE 11 19 6 10 1014.6 - 0.2
24/04:00am 8.8 6.9 7.5 91 0.6 E 7 11 4 6 1014.2 - 0.2
24/03:30am 9.2 6.5 7.5 89 0.8 E 11 17 6 9 1014.7 - 0.2
24/03:00am 9.3 6.2 7.4 88 0.9 NW 13 20 7 11 1015.2 1015.4 0.2
24/02:30am 9.3 5.4 7.0 85 1.1 NE 17 22 9 12 1015.2 - 0.0
24/02:00am 9.6 6.4 6.8 83 1.3 NE 13 17 7 9 1015.4 - 0.0
24/01:30am 9.8 6.0 5.9 77 1.8 ENE 15 22 8 12 1015.6 - 0.0
24/01:00am 9.9 5.6 5.3 73 2.1 ENE 17 24 9 13 1015.5 - 0.0
24/12:30am 9.9 5.6 5.3 73 2.1 ENE 17 24 9 13 1015.9 - 0.0
24/12:00am 9.9 6.4 5.3 73 2.1 NE 13 19 7 10 1016.4 1016.6 0.0
 
Date/Time
EST
Temp
°C
App
Temp
°C
Dew
Point
Rel
Hum
%
Delta-T
°C
Wind Press
QNH
hPa
Press
MSL
hPa
Rain
since 9 am
mm
Dir
 
Spd
km/h
Gust
km/h
Spd
kts
Gust
kts
23/11:30pm 10.0 5.2 4.9 70 2.3 ENE 19 24 10 13 1016.2 - 0.0
23/11:00pm 9.8 5.4 4.9 71 2.2 ENE 17 26 9 14 1016.5 - 0.0
23/10:30pm 9.7 5.3 5.0 72 2.1 ENE 17 22 9 12 1016.6 - 0.0
23/10:00pm 9.7 5.7 4.8 71 2.2 ENE 15 20 8 11 1017.1 - 0.0
23/09:30pm 9.7 6.1 4.8 71 2.2 ENE 13 19 7 10 1017.2 - 0.0
23/09:00pm 10.0 5.5 4.4 68 2.5 E 17 24 9 13 1017.6 1017.8 0.0
23/08:30pm 10.3 6.3 4.7 68 2.5 E 15 20 8 11 1017.9 - 0.0
23/08:00pm 10.6 6.9 4.6 66 2.7 ENE 13 19 7 10 1018.0 - 0.0
23/07:30pm 10.4 7.1 4.6 67 2.6 E 11 15 6 8 1018.0 - 0.0
23/07:00pm 10.9 7.6 4.7 65 2.8 E 11 17 6 9 1018.0 - 0.0
23/06:30pm 10.9 7.6 4.7 65 2.8 E 11 15 6 8 1017.9 - 0.0
23/06:00pm 10.6 7.9 5.4 70 2.4 E 9 13 5 7 1018.1 1018.3 0.0
23/05:30pm 11.3 8.5 5.2 66 2.8 E 9 9 5 5 1018.2 - 0.0
23/05:00pm 12.0 9.6 5.3 63 3.1 E 7 9 4 5 1018.4 - 0.0
23/04:30pm 13.3 10.1 5.1 57 3.8 ENE 11 17 6 9 1018.5 - 0.0
23/04:00pm 14.9 11.3 4.9 51 4.7 NE 13 19 7 10 1018.5 - 0.0
23/03:30pm 14.9 10.6 3.2 45 5.3 NE 15 20 8 11 1018.5 - 0.0
23/03:00pm 14.2 10.4 3.9 50 4.7 ENE 13 19 7 10 1018.6 1018.8 0.0
23/02:30pm 14.0 9.9 4.5 52 4.4 NE 15 20 8 11 1019.0 - 0.0
23/02:00pm 14.0 9.8 3.9 50 4.6 NE 15 20 8 11 1019.3 - 0.0
23/01:30pm 13.5 9.7 3.8 52 4.4 ENE 13 19 7 10 1019.6 - 0.0
23/01:00pm 12.8 9.3 3.7 54 4.1 NE 11 19 6 10 1020.4 - 0.0
23/12:30pm 13.1 9.6 5.4 59 3.6 NNE 13 19 7 10 1021.0 - 0.0
23/12:00pm 11.1 7.5 5.2 67 2.7 NNE 13 17 7 9 1021.7 1021.8 0.0
23/11:30am 10.2 7.2 5.9 74 2.0 NE 11 15 6 8 1022.3 - 0.0
23/11:00am 8.4 5.7 5.5 82 1.3 ENE 9 13 5 7 1022.7 - 0.0
23/10:30am 6.3 3.4 4.7 89 0.7 ENE 9 13 5 7 1023.2 - 0.0
23/10:00am 5.2 2.6 4.3 94 0.4 ENE 7 11 4 6 1023.3 - 0.0
23/09:30am 4.0 0.5 3.3 95 0.3 ENE 11 17 6 9 1023.2 - 0.0
23/09:00am 3.3 0.1 2.8 97 0.2 ESE 9 15 5 8 1023.3 1023.4 0.4
23/08:30am 1.2 -2.1 0.1 92 0.4 SE 7 9 4 5 1023.4 - 0.2
23/08:00am 0.4 - - - - SE 6 7 3 4 1023.5 - 0.2
23/07:30am 0.4 - - - - SE 6 7 3 4 1023.6 - 0.2
23/07:00am 0.6 - - - - SE 7 11 4 6 1023.3 - 0.2
23/06:30am 0.7 - - - - SE 9 11 5 6 1023.3 - 0.2
23/06:00am 0.3 - - - - CALM 0 0 0 0 1023.3 1023.4 0.2
23/05:30am 0.0 - - - - CALM 0 0 0 0 1023.2 - 0.2
23/05:00am -0.4 - - - - CALM 0 0 0 0 1023.2 - 0.2
23/04:30am -1.0 - - - - CALM 0 0 0 0 1023.1 - 0.2
23/04:00am -1.1 - - - - CALM 0 0 0 0 1023.1 - 0.2
23/03:30am -1.3 - - - - CALM 0 0 0 0 1023.3 - 0.2
23/03:00am -1.3 - - - - CALM 0 0 0 0 1023.6 1023.7 0.2
23/02:30am -1.2 - - - - CALM 0 0 0 0 1023.9 - 0.2
23/02:00am -1.1 - - - - CALM 0 0 0 0 1023.7 - 0.2
23/01:30am -0.9 - - - - SSE 7 9 4 5 1023.6 - 0.2
23/01:00am -0.7 - - - - CALM 0 0 0 0 1023.6 - 0.2
23/12:30am -0.4 - - - - SSE 6 9 3 5 1023.6 - 0.2
23/12:00am -0.3 - - - - SSE 11 13 6 7 1023.6 1023.7 0.2
 
Date/Time
EST
Temp
°C
App
Temp
°C
Dew
Point
Rel
Hum
%
Delta-T
°C
Wind Press
QNH
hPa
Press
MSL
hPa
Rain
since 9 am
mm
Dir
 
Spd
km/h
Gust
km/h
Spd
kts
Gust
kts
22/11:30pm -0.6 - - - - SSE 11 13 6 7 1023.9 - 0.2
22/11:00pm -1.0 - - - - SSE 4 9 2 5 1024.2 - 0.2
22/10:30pm -1.0 - - - - SSE 6 9 3 5 1024.3 - 0.2
22/10:00pm -0.7 - - - - CALM 0 0 0 0 1024.5 - 0.2
22/09:30pm -0.5 - - - - CALM 0 0 0 0 1024.6 - 0.2

Other Formats:

Comma delimited format used in spreadsheet applications
http://www.bom.gov.au/fwo/IDV60801/IDV60801.94843.axf

JavaScript Object Notation format (JSON) in row-major order
http://www.bom.gov.au/fwo/IDV60801/IDV60801.94843.json